sensor_id;sensor_type;location;lat;lon;timestamp;pressure;altitude;pressure_sealevel;temperature
16956;BMP180;8594;52.052;8.354;2023-10-08T00:02:10;101108.00;;;21.40
16956;BMP180;8594;52.052;8.354;2023-10-08T00:04:40;101117.00;;;21.30
16956;BMP180;8594;52.052;8.354;2023-10-08T00:07:10;101129.00;;;21.50
16956;BMP180;8594;52.052;8.354;2023-10-08T00:09:37;101128.00;;;21.20
16956;BMP180;8594;52.052;8.354;2023-10-08T00:12:06;101123.00;;;21.10
16956;BMP180;8594;52.052;8.354;2023-10-08T00:14:34;101146.00;;;21.30
16956;BMP180;8594;52.052;8.354;2023-10-08T00:17:12;101141.00;;;21.20
16956;BMP180;8594;52.052;8.354;2023-10-08T00:19:39;101129.00;;;21.40
16956;BMP180;8594;52.052;8.354;2023-10-08T00:22:09;101147.00;;;21.10
16956;BMP180;8594;52.052;8.354;2023-10-08T00:24:36;101140.00;;;21.10
16956;BMP180;8594;52.052;8.354;2023-10-08T00:27:08;101129.00;;;21.30
16956;BMP180;8594;52.052;8.354;2023-10-08T00:29:35;101136.00;;;21.20
16956;BMP180;8594;52.052;8.354;2023-10-08T00:32:06;101134.00;;;21.00
16956;BMP180;8594;52.052;8.354;2023-10-08T00:34:39;101127.00;;;21.20
16956;BMP180;8594;52.052;8.354;2023-10-08T00:37:09;101120.00;;;21.10
16956;BMP180;8594;52.052;8.354;2023-10-08T00:39:40;101135.00;;;21.40
16956;BMP180;8594;52.052;8.354;2023-10-08T00:42:08;101138.00;;;21.30
16956;BMP180;8594;52.052;8.354;2023-10-08T00:44:38;101150.00;;;21.10
16956;BMP180;8594;52.052;8.354;2023-10-08T00:47:14;101164.00;;;21.10
16956;BMP180;8594;52.052;8.354;2023-10-08T00:49:43;101158.00;;;20.80
16956;BMP180;8594;52.052;8.354;2023-10-08T00:52:30;101156.00;;;20.90
16956;BMP180;8594;52.052;8.354;2023-10-08T00:55:05;101163.00;;;21.00
16956;BMP180;8594;52.052;8.354;2023-10-08T00:57:50;101169.00;;;20.90
16956;BMP180;8594;52.052;8.354;2023-10-08T01:00:19;101175.00;;;21.10
16956;BMP180;8594;52.052;8.354;2023-10-08T01:02:49;101189.00;;;21.30
16956;BMP180;8594;52.052;8.354;2023-10-08T01:05:20;101191.00;;;20.80
16956;BMP180;8594;52.052;8.354;2023-10-08T01:08:08;101190.00;;;21.00
16956;BMP180;8594;52.052;8.354;2023-10-08T01:10:38;101185.00;;;21.10
16956;BMP180;8594;52.052;8.354;2023-10-08T01:13:07;101183.00;;;21.10
16956;BMP180;8594;52.052;8.354;2023-10-08T01:15:40;101202.00;;;20.60
16956;BMP180;8594;52.052;8.354;2023-10-08T01:18:10;101205.00;;;20.80
16956;BMP180;8594;52.052;8.354;2023-10-08T01:20:41;101219.00;;;19.90
16956;BMP180;8594;52.052;8.354;2023-10-08T01:23:19;101235.00;;;19.40
16956;BMP180;8594;52.052;8.354;2023-10-08T01:25:49;101243.00;;;19.60
16956;BMP180;8594;52.052;8.354;2023-10-08T01:28:29;101254.00;;;19.00
16956;BMP180;8594;52.052;8.354;2023-10-08T01:31:00;101221.00;;;19.20
16956;BMP180;8594;52.052;8.354;2023-10-08T01:33:29;101223.00;;;18.60
16956;BMP180;8594;52.052;8.354;2023-10-08T01:35:57;101229.00;;;18.80
16956;BMP180;8594;52.052;8.354;2023-10-08T01:38:29;101231.00;;;18.40
16956;BMP180;8594;52.052;8.354;2023-10-08T01:40:56;101246.00;;;18.00
16956;BMP180;8594;52.052;8.354;2023-10-08T01:43:28;101243.00;;;18.10
16956;BMP180;8594;52.052;8.354;2023-10-08T01:45:55;101239.00;;;17.80
16956;BMP180;8594;52.052;8.354;2023-10-08T01:48:22;101241.00;;;18.00
16956;BMP180;8594;52.052;8.354;2023-10-08T01:50:54;101255.00;;;17.60
16956;BMP180;8594;52.052;8.354;2023-10-08T01:53:21;101283.00;;;17.70
16956;BMP180;8594;52.052;8.354;2023-10-08T01:55:49;101278.00;;;17.60
16956;BMP180;8594;52.052;8.354;2023-10-08T01:58:18;101270.00;;;17.60
16956;BMP180;8594;52.052;8.354;2023-10-08T02:00:46;101260.00;;;17.60
16956;BMP180;8594;52.052;8.354;2023-10-08T02:03:14;101271.00;;;17.40
16956;BMP180;8594;52.052;8.354;2023-10-08T02:05:42;101271.00;;;17.30
16956;BMP180;8594;52.052;8.354;2023-10-08T02:08:10;101272.00;;;16.90
16956;BMP180;8594;52.052;8.354;2023-10-08T02:10:39;101257.00;;;17.00
16956;BMP180;8594;52.052;8.354;2023-10-08T02:13:09;101240.00;;;17.10
16956;BMP180;8594;52.052;8.354;2023-10-08T02:15:36;101242.00;;;17.20
16956;BMP180;8594;52.052;8.354;2023-10-08T02:18:05;101238.00;;;17.20
16956;BMP180;8594;52.052;8.354;2023-10-08T02:20:32;101228.00;;;17.10
16956;BMP180;8594;52.052;8.354;2023-10-08T02:22:59;101232.00;;;17.00
16956;BMP180;8594;52.052;8.354;2023-10-08T02:25:27;101236.00;;;17.20
16956;BMP180;8594;52.052;8.354;2023-10-08T02:27:54;101210.00;;;16.90
16956;BMP180;8594;52.052;8.354;2023-10-08T02:30:22;101226.00;;;16.90
16956;BMP180;8594;52.052;8.354;2023-10-08T02:32:49;101248.00;;;16.90
16956;BMP180;8594;52.052;8.354;2023-10-08T02:35:18;101255.00;;;17.00
16956;BMP180;8594;52.052;8.354;2023-10-08T02:37:45;101277.00;;;16.90
16956;BMP180;8594;52.052;8.354;2023-10-08T02:40:12;101267.00;;;16.80
16956;BMP180;8594;52.052;8.354;2023-10-08T02:42:47;101235.00;;;16.80
16956;BMP180;8594;52.052;8.354;2023-10-08T02:45:14;101213.00;;;16.20
16956;BMP180;8594;52.052;8.354;2023-10-08T02:47:44;101222.00;;;16.50
16956;BMP180;8594;52.052;8.354;2023-10-08T02:50:11;101230.00;;;16.10
16956;BMP180;8594;52.052;8.354;2023-10-08T02:52:42;101267.00;;;16.50
16956;BMP180;8594;52.052;8.354;2023-10-08T02:55:11;101283.00;;;16.70
16956;BMP180;8594;52.052;8.354;2023-10-08T02:57:51;101292.00;;;16.60
16956;BMP180;8594;52.052;8.354;2023-10-08T03:00:18;101285.00;;;16.50
16956;BMP180;8594;52.052;8.354;2023-10-08T03:02:47;101273.00;;;16.50
16956;BMP180;8594;52.052;8.354;2023-10-08T03:05:15;101284.00;;;16.70
16956;BMP180;8594;52.052;8.354;2023-10-08T03:07:44;101275.00;;;16.70
16956;BMP180;8594;52.052;8.354;2023-10-08T03:10:12;101296.00;;;16.90
16956;BMP180;8594;52.052;8.354;2023-10-08T03:12:45;101299.00;;;16.70
16956;BMP180;8594;52.052;8.354;2023-10-08T03:15:14;101305.00;;;16.50
16956;BMP180;8594;52.052;8.354;2023-10-08T03:17:59;101304.00;;;16.70
16956;BMP180;8594;52.052;8.354;2023-10-08T03:20:35;101293.00;;;16.60
16956;BMP180;8594;52.052;8.354;2023-10-08T03:23:09;101287.00;;;16.70
16956;BMP180;8594;52.052;8.354;2023-10-08T03:25:51;101291.00;;;16.50
16956;BMP180;8594;52.052;8.354;2023-10-08T03:28:22;101302.00;;;16.30
16956;BMP180;8594;52.052;8.354;2023-10-08T03:30:51;101307.00;;;16.30
16956;BMP180;8594;52.052;8.354;2023-10-08T03:33:30;101312.00;;;16.50
16956;BMP180;8594;52.052;8.354;2023-10-08T03:36:00;101312.00;;;16.60
16956;BMP180;8594;52.052;8.354;2023-10-08T03:38:36;101317.00;;;16.40
16956;BMP180;8594;52.052;8.354;2023-10-08T03:41:17;101320.00;;;16.20
16956;BMP180;8594;52.052;8.354;2023-10-08T03:43:46;101321.00;;;15.80
16956;BMP180;8594;52.052;8.354;2023-10-08T03:46:23;101337.00;;;16.00
16956;BMP180;8594;52.052;8.354;2023-10-08T03:48:53;101335.00;;;15.90
16956;BMP180;8594;52.052;8.354;2023-10-08T03:51:22;101333.00;;;16.00
16956;BMP180;8594;52.052;8.354;2023-10-08T03:53:52;101337.00;;;15.70
16956;BMP180;8594;52.052;8.354;2023-10-08T03:56:36;101347.00;;;15.70
16956;BMP180;8594;52.052;8.354;2023-10-08T03:59:03;101345.00;;;15.80
16956;BMP180;8594;52.052;8.354;2023-10-08T04:01:38;101345.00;;;15.70
16956;BMP180;8594;52.052;8.354;2023-10-08T04:04:07;101334.00;;;15.80
16956;BMP180;8594;52.052;8.354;2023-10-08T04:06:38;101330.00;;;15.50
16956;BMP180;8594;52.052;8.354;2023-10-08T04:09:13;101345.00;;;15.70
16956;BMP180;8594;52.052;8.354;2023-10-08T04:11:50;101341.00;;;15.90
16956;BMP180;8594;52.052;8.354;2023-10-08T04:14:29;101327.00;;;15.20
16956;BMP180;8594;52.052;8.354;2023-10-08T04:16:57;101323.00;;;15.50
16956;BMP180;8594;52.052;8.354;2023-10-08T04:19:25;101319.00;;;15.80
16956;BMP180;8594;52.052;8.354;2023-10-08T04:21:53;101330.00;;;15.80
16956;BMP180;8594;52.052;8.354;2023-10-08T04:24:22;101335.00;;;15.80
16956;BMP180;8594;52.052;8.354;2023-10-08T04:26:55;101332.00;;;15.80
16956;BMP180;8594;52.052;8.354;2023-10-08T04:29:28;101335.00;;;15.30
16956;BMP180;8594;52.052;8.354;2023-10-08T04:31:59;101330.00;;;15.70
16956;BMP180;8594;52.052;8.354;2023-10-08T04:34:34;101329.00;;;15.90
16956;BMP180;8594;52.052;8.354;2023-10-08T04:37:02;101322.00;;;16.00
16956;BMP180;8594;52.052;8.354;2023-10-08T04:39:38;101322.00;;;16.10
16956;BMP180;8594;52.052;8.354;2023-10-08T04:42:06;101320.00;;;16.00
16956;BMP180;8594;52.052;8.354;2023-10-08T04:44:37;101326.00;;;16.10
16956;BMP180;8594;52.052;8.354;2023-10-08T04:47:06;101326.00;;;16.30
16956;BMP180;8594;52.052;8.354;2023-10-08T04:49:56;101349.00;;;15.90
16956;BMP180;8594;52.052;8.354;2023-10-08T04:52:23;101351.00;;;16.00
16956;BMP180;8594;52.052;8.354;2023-10-08T04:54:51;101349.00;;;16.10
16956;BMP180;8594;52.052;8.354;2023-10-08T04:57:21;101346.00;;;16.50
16956;BMP180;8594;52.052;8.354;2023-10-08T04:59:51;101368.00;;;16.40
16956;BMP180;8594;52.052;8.354;2023-10-08T05:02:23;101372.00;;;16.30
16956;BMP180;8594;52.052;8.354;2023-10-08T05:05:01;101382.00;;;16.60
16956;BMP180;8594;52.052;8.354;2023-10-08T05:07:49;101409.00;;;16.20
16956;BMP180;8594;52.052;8.354;2023-10-08T05:10:36;101427.00;;;15.90
16956;BMP180;8594;52.052;8.354;2023-10-08T05:13:35;101432.00;;;15.90
16956;BMP180;8594;52.052;8.354;2023-10-08T05:16:22;101430.00;;;16.10
16956;BMP180;8594;52.052;8.354;2023-10-08T05:19:02;101425.00;;;16.20
16956;BMP180;8594;52.052;8.354;2023-10-08T05:21:52;101425.00;;;16.00
16956;BMP180;8594;52.052;8.354;2023-10-08T05:24:28;101433.00;;;16.60
16956;BMP180;8594;52.052;8.354;2023-10-08T05:27:05;101443.00;;;16.70
16956;BMP180;8594;52.052;8.354;2023-10-08T05:29:49;101436.00;;;16.40
16956;BMP180;8594;52.052;8.354;2023-10-08T05:32:38;101441.00;;;16.80
16956;BMP180;8594;52.052;8.354;2023-10-08T05:35:12;101462.00;;;16.60
16956;BMP180;8594;52.052;8.354;2023-10-08T05:37:58;101473.00;;;16.20
16956;BMP180;8594;52.052;8.354;2023-10-08T05:40:39;101483.00;;;16.00
16956;BMP180;8594;52.052;8.354;2023-10-08T05:43:32;101485.00;;;16.10
16956;BMP180;8594;52.052;8.354;2023-10-08T05:46:31;101476.00;;;16.60
16956;BMP180;8594;52.052;8.354;2023-10-08T05:49:15;101450.00;;;16.70
16956;BMP180;8594;52.052;8.354;2023-10-08T05:52:04;101461.00;;;16.80
16956;BMP180;8594;52.052;8.354;2023-10-08T05:54:52;101482.00;;;16.90
16956;BMP180;8594;52.052;8.354;2023-10-08T05:57:53;101476.00;;;16.60
16956;BMP180;8594;52.052;8.354;2023-10-08T06:00:30;101472.00;;;16.90
16956;BMP180;8594;52.052;8.354;2023-10-08T06:03:13;101465.00;;;16.80
16956;BMP180;8594;52.052;8.354;2023-10-08T06:06:02;101465.00;;;16.90
16956;BMP180;8594;52.052;8.354;2023-10-08T06:08:46;101472.00;;;16.80
16956;BMP180;8594;52.052;8.354;2023-10-08T06:11:19;101484.00;;;16.60
16956;BMP180;8594;52.052;8.354;2023-10-08T06:14:03;101495.00;;;16.20
16956;BMP180;8594;52.052;8.354;2023-10-08T06:19:11;101507.00;;;16.50
16956;BMP180;8594;52.052;8.354;2023-10-08T06:21:40;101507.00;;;16.30
16956;BMP180;8594;52.052;8.354;2023-10-08T06:24:09;101508.00;;;16.40
16956;BMP180;8594;52.052;8.354;2023-10-08T06:26:39;101500.00;;;16.80
16956;BMP180;8594;52.052;8.354;2023-10-08T06:29:10;101500.00;;;16.80
16956;BMP180;8594;52.052;8.354;2023-10-08T06:31:53;101499.00;;;16.40
16956;BMP180;8594;52.052;8.354;2023-10-08T06:34:21;101517.00;;;16.30
16956;BMP180;8594;52.052;8.354;2023-10-08T06:36:50;101530.00;;;16.00
16956;BMP180;8594;52.052;8.354;2023-10-08T06:39:20;101536.00;;;16.00
16956;BMP180;8594;52.052;8.354;2023-10-08T06:41:53;101544.00;;;15.90
16956;BMP180;8594;52.052;8.354;2023-10-08T06:44:22;101543.00;;;15.70
16956;BMP180;8594;52.052;8.354;2023-10-08T06:46:49;101542.00;;;15.80
16956;BMP180;8594;52.052;8.354;2023-10-08T06:49:18;101546.00;;;16.00
16956;BMP180;8594;52.052;8.354;2023-10-08T06:51:50;101551.00;;;16.00
16956;BMP180;8594;52.052;8.354;2023-10-08T06:54:17;101566.00;;;15.90
16956;BMP180;8594;52.052;8.354;2023-10-08T06:56:45;101570.00;;;16.00
16956;BMP180;8594;52.052;8.354;2023-10-08T06:59:18;101571.00;;;16.20
16956;BMP180;8594;52.052;8.354;2023-10-08T07:01:48;101584.00;;;16.20
16956;BMP180;8594;52.052;8.354;2023-10-08T07:04:18;101583.00;;;16.20
16956;BMP180;8594;52.052;8.354;2023-10-08T07:06:47;101578.00;;;16.10
16956;BMP180;8594;52.052;8.354;2023-10-08T07:09:16;101575.00;;;16.20
16956;BMP180;8594;52.052;8.354;2023-10-08T07:11:55;101589.00;;;16.20
16956;BMP180;8594;52.052;8.354;2023-10-08T07:14:25;101596.00;;;16.20
16956;BMP180;8594;52.052;8.354;2023-10-08T07:16:54;101587.00;;;16.00
16956;BMP180;8594;52.052;8.354;2023-10-08T07:19:24;101572.00;;;16.20
16956;BMP180;8594;52.052;8.354;2023-10-08T07:21:59;101583.00;;;16.20
16956;BMP180;8594;52.052;8.354;2023-10-08T07:24:43;101573.00;;;16.40
16956;BMP180;8594;52.052;8.354;2023-10-08T07:27:11;101571.00;;;16.50
16956;BMP180;8594;52.052;8.354;2023-10-08T07:29:40;101588.00;;;16.40
16956;BMP180;8594;52.052;8.354;2023-10-08T07:32:12;101576.00;;;16.30
16956;BMP180;8594;52.052;8.354;2023-10-08T07:34:44;101570.00;;;16.70
16956;BMP180;8594;52.052;8.354;2023-10-08T07:37:11;101561.00;;;16.60
16956;BMP180;8594;52.052;8.354;2023-10-08T07:39:39;101566.00;;;16.80
16956;BMP180;8594;52.052;8.354;2023-10-08T07:42:12;101583.00;;;16.70
16956;BMP180;8594;52.052;8.354;2023-10-08T07:44:40;101572.00;;;16.60
16956;BMP180;8594;52.052;8.354;2023-10-08T07:47:08;101590.00;;;17.00
16956;BMP180;8594;52.052;8.354;2023-10-08T07:49:38;101590.00;;;16.70
16956;BMP180;8594;52.052;8.354;2023-10-08T07:52:05;101606.00;;;16.70
16956;BMP180;8594;52.052;8.354;2023-10-08T07:54:32;101594.00;;;16.60
16956;BMP180;8594;52.052;8.354;2023-10-08T07:57:01;101592.00;;;16.70
16956;BMP180;8594;52.052;8.354;2023-10-08T07:59:35;101609.00;;;16.80
16956;BMP180;8594;52.052;8.354;2023-10-08T08:02:06;101613.00;;;16.90
16956;BMP180;8594;52.052;8.354;2023-10-08T08:04:36;101626.00;;;17.00
16956;BMP180;8594;52.052;8.354;2023-10-08T08:07:03;101636.00;;;17.00
16956;BMP180;8594;52.052;8.354;2023-10-08T08:09:31;101631.00;;;16.90
16956;BMP180;8594;52.052;8.354;2023-10-08T08:12:05;101632.00;;;16.80
16956;BMP180;8594;52.052;8.354;2023-10-08T08:14:37;101627.00;;;16.80
16956;BMP180;8594;52.052;8.354;2023-10-08T08:17:05;101627.00;;;16.70
16956;BMP180;8594;52.052;8.354;2023-10-08T08:19:40;101602.00;;;17.40
16956;BMP180;8594;52.052;8.354;2023-10-08T08:22:07;101591.00;;;17.70
16956;BMP180;8594;52.052;8.354;2023-10-08T08:24:33;101588.00;;;17.00
16956;BMP180;8594;52.052;8.354;2023-10-08T08:27:03;101593.00;;;17.60
16956;BMP180;8594;52.052;8.354;2023-10-08T08:29:37;101591.00;;;17.10
16956;BMP180;8594;52.052;8.354;2023-10-08T08:32:12;101616.00;;;16.90
16956;BMP180;8594;52.052;8.354;2023-10-08T08:34:41;101634.00;;;17.10
16956;BMP180;8594;52.052;8.354;2023-10-08T08:37:10;101648.00;;;17.00
16956;BMP180;8594;52.052;8.354;2023-10-08T08:39:38;101652.00;;;17.00
16956;BMP180;8594;52.052;8.354;2023-10-08T08:42:04;101676.00;;;17.20
16956;BMP180;8594;52.052;8.354;2023-10-08T08:44:35;101681.00;;;17.40
16956;BMP180;8594;52.052;8.354;2023-10-08T08:47:06;101678.00;;;17.50
16956;BMP180;8594;52.052;8.354;2023-10-08T08:49:38;101683.00;;;17.70
16956;BMP180;8594;52.052;8.354;2023-10-08T08:52:05;101684.00;;;17.90
16956;BMP180;8594;52.052;8.354;2023-10-08T08:54:32;101678.00;;;17.60
16956;BMP180;8594;52.052;8.354;2023-10-08T08:57:02;101672.00;;;17.60
16956;BMP180;8594;52.052;8.354;2023-10-08T08:59:31;101668.00;;;17.80
16956;BMP180;8594;52.052;8.354;2023-10-08T09:01:58;101654.00;;;17.90
16956;BMP180;8594;52.052;8.354;2023-10-08T09:04:29;101670.00;;;17.50
16956;BMP180;8594;52.052;8.354;2023-10-08T09:07:00;101686.00;;;17.30
16956;BMP180;8594;52.052;8.354;2023-10-08T09:09:33;101693.00;;;17.40
16956;BMP180;8594;52.052;8.354;2023-10-08T09:12:01;101707.00;;;17.40
16956;BMP180;8594;52.052;8.354;2023-10-08T09:14:30;101690.00;;;17.90
16956;BMP180;8594;52.052;8.354;2023-10-08T09:17:00;101679.00;;;17.90
16956;BMP180;8594;52.052;8.354;2023-10-08T09:19:30;101675.00;;;17.80
16956;BMP180;8594;52.052;8.354;2023-10-08T09:22:06;101680.00;;;18.00
16956;BMP180;8594;52.052;8.354;2023-10-08T09:24:36;101648.00;;;17.80
16956;BMP180;8594;52.052;8.354;2023-10-08T09:27:03;101622.00;;;17.90
16956;BMP180;8594;52.052;8.354;2023-10-08T09:29:31;101637.00;;;18.10
16956;BMP180;8594;52.052;8.354;2023-10-08T09:32:04;101661.00;;;18.00
16956;BMP180;8594;52.052;8.354;2023-10-08T09:34:33;101647.00;;;18.00
16956;BMP180;8594;52.052;8.354;2023-10-08T09:37:02;101663.00;;;18.20
16956;BMP180;8594;52.052;8.354;2023-10-08T09:39:30;101645.00;;;18.30
16956;BMP180;8594;52.052;8.354;2023-10-08T09:42:01;101677.00;;;18.00
16956;BMP180;8594;52.052;8.354;2023-10-08T09:44:30;101683.00;;;18.00
16956;BMP180;8594;52.052;8.354;2023-10-08T09:47:03;101696.00;;;17.80
16956;BMP180;8594;52.052;8.354;2023-10-08T09:49:32;101713.00;;;17.90
16956;BMP180;8594;52.052;8.354;2023-10-08T09:52:04;101712.00;;;18.20
16956;BMP180;8594;52.052;8.354;2023-10-08T09:54:42;101704.00;;;18.30
16956;BMP180;8594;52.052;8.354;2023-10-08T09:57:11;101713.00;;;18.00
16956;BMP180;8594;52.052;8.354;2023-10-08T09:59:39;101726.00;;;18.10
16956;BMP180;8594;52.052;8.354;2023-10-08T10:02:07;101738.00;;;18.10
16956;BMP180;8594;52.052;8.354;2023-10-08T10:04:41;101743.00;;;18.20
16956;BMP180;8594;52.052;8.354;2023-10-08T10:07:12;101739.00;;;18.70
16956;BMP180;8594;52.052;8.354;2023-10-08T10:09:44;101714.00;;;18.60
16956;BMP180;8594;52.052;8.354;2023-10-08T10:12:17;101720.00;;;19.30
16956;BMP180;8594;52.052;8.354;2023-10-08T10:14:53;101728.00;;;19.20
16956;BMP180;8594;52.052;8.354;2023-10-08T10:17:23;101722.00;;;19.60
16956;BMP180;8594;52.052;8.354;2023-10-08T10:19:54;101730.00;;;19.60
16956;BMP180;8594;52.052;8.354;2023-10-08T10:22:30;101721.00;;;19.00
16956;BMP180;8594;52.052;8.354;2023-10-08T10:24:58;101714.00;;;18.90
16956;BMP180;8594;52.052;8.354;2023-10-08T10:27:26;101723.00;;;19.20
16956;BMP180;8594;52.052;8.354;2023-10-08T10:30:02;101712.00;;;19.10
16956;BMP180;8594;52.052;8.354;2023-10-08T10:32:34;101685.00;;;19.60
16956;BMP180;8594;52.052;8.354;2023-10-08T10:35:01;101703.00;;;19.40
16956;BMP180;8594;52.052;8.354;2023-10-08T10:37:33;101682.00;;;19.30
16956;BMP180;8594;52.052;8.354;2023-10-08T10:40:08;101686.00;;;19.10
16956;BMP180;8594;52.052;8.354;2023-10-08T10:42:38;101693.00;;;19.00
16956;BMP180;8594;52.052;8.354;2023-10-08T10:45:14;101692.00;;;19.30
16956;BMP180;8594;52.052;8.354;2023-10-08T10:48:01;101687.00;;;19.70
16956;BMP180;8594;52.052;8.354;2023-10-08T10:50:40;101705.00;;;19.80
16956;BMP180;8594;52.052;8.354;2023-10-08T10:53:18;101687.00;;;20.10
16956;BMP180;8594;52.052;8.354;2023-10-08T10:55:45;101694.00;;;19.90
16956;BMP180;8594;52.052;8.354;2023-10-08T10:58:24;101686.00;;;19.40
16956;BMP180;8594;52.052;8.354;2023-10-08T11:00:52;101697.00;;;19.80
16956;BMP180;8594;52.052;8.354;2023-10-08T11:03:25;101689.00;;;19.60
16956;BMP180;8594;52.052;8.354;2023-10-08T11:05:57;101693.00;;;19.90
16956;BMP180;8594;52.052;8.354;2023-10-08T11:08:33;101687.00;;;19.30
16956;BMP180;8594;52.052;8.354;2023-10-08T11:11:04;101686.00;;;19.40
16956;BMP180;8594;52.052;8.354;2023-10-08T11:13:35;101679.00;;;19.50
16956;BMP180;8594;52.052;8.354;2023-10-08T11:16:06;101665.00;;;18.90
16956;BMP180;8594;52.052;8.354;2023-10-08T11:18:40;101661.00;;;19.90
16956;BMP180;8594;52.052;8.354;2023-10-08T11:21:10;101672.00;;;19.50
16956;BMP180;8594;52.052;8.354;2023-10-08T11:23:51;101680.00;;;20.60
16956;BMP180;8594;52.052;8.354;2023-10-08T11:26:25;101685.00;;;20.40
16956;BMP180;8594;52.052;8.354;2023-10-08T11:29:00;101697.00;;;20.40
16956;BMP180;8594;52.052;8.354;2023-10-08T11:31:29;101706.00;;;19.90
16956;BMP180;8594;52.052;8.354;2023-10-08T11:34:00;101710.00;;;19.60
16956;BMP180;8594;52.052;8.354;2023-10-08T11:36:35;101709.00;;;19.90
16956;BMP180;8594;52.052;8.354;2023-10-08T11:39:15;101698.00;;;20.10
16956;BMP180;8594;52.052;8.354;2023-10-08T11:41:56;101704.00;;;20.00
16956;BMP180;8594;52.052;8.354;2023-10-08T11:44:23;101691.00;;;19.90
16956;BMP180;8594;52.052;8.354;2023-10-08T11:46:58;101694.00;;;19.90
16956;BMP180;8594;52.052;8.354;2023-10-08T11:49:37;101696.00;;;20.10
16956;BMP180;8594;52.052;8.354;2023-10-08T11:52:12;101692.00;;;20.30
16956;BMP180;8594;52.052;8.354;2023-10-08T11:54:44;101683.00;;;19.50
16956;BMP180;8594;52.052;8.354;2023-10-08T11:57:14;101687.00;;;19.90
16956;BMP180;8594;52.052;8.354;2023-10-08T11:59:45;101682.00;;;20.10
16956;BMP180;8594;52.052;8.354;2023-10-08T12:02:14;101684.00;;;19.70
16956;BMP180;8594;52.052;8.354;2023-10-08T12:04:44;101670.00;;;19.90
16956;BMP180;8594;52.052;8.354;2023-10-08T12:07:14;101674.00;;;19.40
16956;BMP180;8594;52.052;8.354;2023-10-08T12:09:45;101669.00;;;20.00
16956;BMP180;8594;52.052;8.354;2023-10-08T12:12:14;101666.00;;;19.40
16956;BMP180;8594;52.052;8.354;2023-10-08T12:14:41;101662.00;;;19.30
16956;BMP180;8594;52.052;8.354;2023-10-08T12:17:11;101648.00;;;19.30
16956;BMP180;8594;52.052;8.354;2023-10-08T12:19:38;101645.00;;;19.20
16956;BMP180;8594;52.052;8.354;2023-10-08T12:22:06;101647.00;;;19.40
16956;BMP180;8594;52.052;8.354;2023-10-08T12:24:34;101642.00;;;19.20
16956;BMP180;8594;52.052;8.354;2023-10-08T12:27:02;101642.00;;;19.60
16956;BMP180;8594;52.052;8.354;2023-10-08T12:29:29;101627.00;;;19.60
16956;BMP180;8594;52.052;8.354;2023-10-08T12:31:58;101614.00;;;19.60
16956;BMP180;8594;52.052;8.354;2023-10-08T12:34:25;101617.00;;;19.50
16956;BMP180;8594;52.052;8.354;2023-10-08T12:36:55;101605.00;;;19.60
16956;BMP180;8594;52.052;8.354;2023-10-08T12:39:22;101628.00;;;19.60
16956;BMP180;8594;52.052;8.354;2023-10-08T12:41:53;101620.00;;;19.60
16956;BMP180;8594;52.052;8.354;2023-10-08T12:44:24;101621.00;;;19.70
16956;BMP180;8594;52.052;8.354;2023-10-08T12:46:53;101622.00;;;19.60
16956;BMP180;8594;52.052;8.354;2023-10-08T12:49:21;101622.00;;;19.60
16956;BMP180;8594;52.052;8.354;2023-10-08T12:51:48;101619.00;;;19.70
16956;BMP180;8594;52.052;8.354;2023-10-08T12:54:15;101614.00;;;19.10
16956;BMP180;8594;52.052;8.354;2023-10-08T12:56:47;101618.00;;;19.60
16956;BMP180;8594;52.052;8.354;2023-10-08T12:59:15;101622.00;;;19.40
16956;BMP180;8594;52.052;8.354;2023-10-08T13:01:48;101628.00;;;19.70
16956;BMP180;8594;52.052;8.354;2023-10-08T13:04:20;101620.00;;;19.70
16956;BMP180;8594;52.052;8.354;2023-10-08T13:06:52;101619.00;;;19.50
16956;BMP180;8594;52.052;8.354;2023-10-08T13:09:22;101616.00;;;19.70
16956;BMP180;8594;52.052;8.354;2023-10-08T13:11:49;101601.00;;;19.60
16956;BMP180;8594;52.052;8.354;2023-10-08T13:14:16;101601.00;;;19.60
16956;BMP180;8594;52.052;8.354;2023-10-08T13:16:43;101616.00;;;19.00
16956;BMP180;8594;52.052;8.354;2023-10-08T13:19:12;101619.00;;;19.50
16956;BMP180;8594;52.052;8.354;2023-10-08T13:21:41;101614.00;;;19.40
16956;BMP180;8594;52.052;8.354;2023-10-08T13:24:09;101618.00;;;19.60
16956;BMP180;8594;52.052;8.354;2023-10-08T13:26:37;101613.00;;;19.60
16956;BMP180;8594;52.052;8.354;2023-10-08T13:29:05;101621.00;;;19.70
16956;BMP180;8594;52.052;8.354;2023-10-08T13:31:34;101608.00;;;20.10
16956;BMP180;8594;52.052;8.354;2023-10-08T13:34:02;101613.00;;;20.30
16956;BMP180;8594;52.052;8.354;2023-10-08T13:36:36;101625.00;;;20.30
16956;BMP180;8594;52.052;8.354;2023-10-08T13:39:05;101623.00;;;20.30
16956;BMP180;8594;52.052;8.354;2023-10-08T13:41:35;101618.00;;;20.70
16956;BMP180;8594;52.052;8.354;2023-10-08T13:44:04;101617.00;;;20.20
16956;BMP180;8594;52.052;8.354;2023-10-08T13:46:32;101617.00;;;19.80
16956;BMP180;8594;52.052;8.354;2023-10-08T13:49:02;101616.00;;;19.90
16956;BMP180;8594;52.052;8.354;2023-10-08T13:51:32;101621.00;;;20.40
16956;BMP180;8594;52.052;8.354;2023-10-08T13:54:02;101604.00;;;19.90
16956;BMP180;8594;52.052;8.354;2023-10-08T13:56:33;101606.00;;;20.00
16956;BMP180;8594;52.052;8.354;2023-10-08T13:59:04;101613.00;;;20.30
16956;BMP180;8594;52.052;8.354;2023-10-08T14:01:38;101624.00;;;20.20
16956;BMP180;8594;52.052;8.354;2023-10-08T14:04:06;101620.00;;;19.90
16956;BMP180;8594;52.052;8.354;2023-10-08T14:06:37;101620.00;;;19.70
16956;BMP180;8594;52.052;8.354;2023-10-08T14:09:08;101620.00;;;19.90
16956;BMP180;8594;52.052;8.354;2023-10-08T14:11:38;101607.00;;;19.70
16956;BMP180;8594;52.052;8.354;2023-10-08T14:14:05;101606.00;;;19.70
16956;BMP180;8594;52.052;8.354;2023-10-08T14:16:37;101605.00;;;19.50
16956;BMP180;8594;52.052;8.354;2023-10-08T14:19:08;101603.00;;;19.60
16956;BMP180;8594;52.052;8.354;2023-10-08T14:21:38;101605.00;;;19.50
16956;BMP180;8594;52.052;8.354;2023-10-08T14:24:16;101596.00;;;19.50
16956;BMP180;8594;52.052;8.354;2023-10-08T14:26:43;101594.00;;;19.20
16956;BMP180;8594;52.052;8.354;2023-10-08T14:29:12;101595.00;;;19.30
16956;BMP180;8594;52.052;8.354;2023-10-08T14:31:41;101582.00;;;19.10
16956;BMP180;8594;52.052;8.354;2023-10-08T14:34:10;101587.00;;;19.30
16956;BMP180;8594;52.052;8.354;2023-10-08T14:36:55;101588.00;;;18.90
16956;BMP180;8594;52.052;8.354;2023-10-08T14:39:41;101589.00;;;19.40